Time;durP1;ratioP1;P1;durP2;ratioP2;P2;SDS_P1;SDS_P2;PMS_P1;PMS_P2;Temp;Humidity;BMP_temperature;BMP_pressure;BME280_temperature;BME280_humidity;BME280_pressure;Samples;Min_cycle;Max_cycle;Signal;HPM_P1;HPM_P2
2021/10/01 11:40:19;;;;;;;1.83;1.08;;;;;;;;;;6161766;23;20059;-78
2021/10/01 11:43:07;;;;;;;2.50;1.50;;;;;;;;;;6221478;23;20031;-79
2021/10/01 11:45:46;;;;;;;1.87;1.20;;;;;;;;;;6225820;23;20057;-78
2021/10/01 11:48:15;;;;;;;1.20;1.10;;;;;;;;;;6246137;23;20261;-79
2021/10/01 11:50:49;;;;;;;3.00;1.10;;;;;;;;;;6221679;23;20004;-80
2021/10/01 11:53:22;;;;;;;1.85;1.05;;;;;;;;;;6220726;23;20059;-80
2021/10/01 11:56:03;;;;;;;2.55;1.15;;;;;;;;;;6246110;23;20004;-80
2021/10/01 11:58:31;;;;;;;1.63;1.25;;;;;;;;;;6219283;23;20034;-80
2021/10/01 12:01:15;;;;;;;3.03;1.20;;;;;;;;;;6245887;23;19996;-80
2021/10/01 12:03:59;;;;;;;2.55;1.50;;;;;;;;;;6250813;23;20000;-80
2021/10/01 12:06:30;;;;;;;1.17;0.93;;;;;;;;;;6216821;23;20012;-80
2021/10/01 12:08:58;;;;;;;2.10;1.30;;;;;;;;;;6246144;23;20000;-80
2021/10/01 12:12:03;;;;;;;1.75;0.95;;;;;;;;;;6243472;23;20080;-79
2021/10/01 12:14:39;;;;;;;2.08;1.20;;;;;;;;;;6233272;23;20479;-80
2021/10/01 12:17:16;;;;;;;3.00;1.48;;;;;;;;;;6225630;23;20011;-79
2021/10/01 12:19:41;;;;;;;3.50;1.30;;;;;;;;;;6224138;23;20004;-79
2021/10/01 12:22:17;;;;;;;3.88;1.23;;;;;;;;;;6248244;23;20000;-79
2021/10/01 12:24:49;;;;;;;6.05;1.15;;;;;;;;;;6248499;23;20004;-80
2021/10/01 12:27:17;;;;;;;2.45;1.80;;;;;;;;;;6221719;23;20062;-79
2021/10/01 12:29:50;;;;;;;3.30;1.20;;;;;;;;;;6258092;23;20008;-79
2021/10/01 12:32:19;;;;;;;2.47;1.08;;;;;;;;;;6228586;23;20071;-79
2021/10/01 12:34:56;;;;;;;1.90;1.17;;;;;;;;;;6221833;23;20040;-80
2021/10/01 12:37:24;;;;;;;2.00;1.20;;;;;;;;;;6248069;23;20004;-80
2021/10/01 12:39:56;;;;;;;1.35;1.13;;;;;;;;;;6248230;23;20004;-80
2021/10/01 12:42:34;;;;;;;2.45;1.20;;;;;;;;;;6247775;23;20030;-80
2021/10/01 12:45:12;;;;;;;2.03;1.20;;;;;;;;;;6221012;23;20050;-80
2021/10/01 12:47:40;;;;;;;2.92;1.40;;;;;;;;;;6247535;23;20015;-80
2021/10/01 12:50:29;;;;;;;1.27;1.00;;;;;;;;;;6245427;23;20000;-80
2021/10/01 12:53:00;;;;;;;5.60;1.20;;;;;;;;;;6227423;23;20489;-79
2021/10/01 12:55:30;;;;;;;2.38;1.08;;;;;;;;;;6247544;23;20345;-79
2021/10/01 12:57:56;;;;;;;2.00;1.05;;;;;;;;;;6251445;23;20031;-79
2021/10/01 13:00:37;;;;;;;1.92;1.10;;;;;;;;;;6251823;23;20324;-79
2021/10/01 13:03:03;;;;;;;2.22;0.90;;;;;;;;;;6223903;23;20423;-79
2021/10/01 13:05:37;;;;;;;1.60;1.00;;;;;;;;;;6247606;23;19996;-79
2021/10/01 13:08:02;;;;;;;1.95;1.48;;;;;;;;;;6248885;23;20000;-79
2021/10/01 13:10:48;;;;;;;4.32;1.10;;;;;;;;;;6247941;23;20080;-80
2021/10/01 13:13:19;;;;;;;3.00;1.33;;;;;;;;;;6247670;23;20004;-80
2021/10/01 13:15:51;;;;;;;1.52;1.05;;;;;;;;;;6247732;23;20427;-80
2021/10/01 13:21:12;;;;;;;1.42;1.20;;;;;;;;;;6247896;23;20435;-82
2021/10/01 13:23:42;;;;;;;2.17;1.00;;;;;;;;;;6229152;23;20008;-82
2021/10/01 13:26:29;;;;;;;1.17;0.98;;;;;;;;;;6247548;23;20015;-83
2021/10/01 13:29:03;;;;;;;2.63;1.02;;;;;;;;;;6220628;23;20394;-81
2021/10/01 13:31:35;;;;;;;4.05;3.38;;;;;;;;;;6247831;23;20430;-82
2021/10/01 13:34:00;;;;;;;7.05;5.13;;;;;;;;;;6220692;23;20015;-84
2021/10/01 13:36:26;;;;;;;2.92;1.40;;;;;;;;;;6219185;23;20013;-83
2021/10/01 13:38:52;;;;;;;1.83;1.08;;;;;;;;;;6217398;23;20424;-83
2021/10/01 13:41:19;;;;;;;3.58;1.52;;;;;;;;;;6217259;23;20000;-83
2021/10/01 13:43:46;;;;;;;4.63;4.00;;;;;;;;;;6217030;23;20008;-83
2021/10/01 13:46:13;;;;;;;4.72;3.78;;;;;;;;;;6217019;23;20055;-82
2021/10/01 13:48:39;;;;;;;3.75;3.33;;;;;;;;;;6216801;23;20008;-83
2021/10/01 13:51:05;;;;;;;4.18;1.52;;;;;;;;;;6217017;23;20071;-82
2021/10/01 13:53:31;;;;;;;1.70;1.27;;;;;;;;;;6216976;23;19997;-82
2021/10/01 13:55:56;;;;;;;2.60;1.08;;;;;;;;;;6216921;23;20008;-82
2021/10/01 13:58:22;;;;;;;1.30;1.02;;;;;;;;;;6216992;23;20412;-83
2021/10/01 14:00:49;;;;;;;1.98;1.10;;;;;;;;;;6217195;23;20005;-83
2021/10/01 14:03:15;;;;;;;1.50;1.10;;;;;;;;;;6217061;23;20008;-82
2021/10/01 14:05:40;;;;;;;1.88;1.40;;;;;;;;;;6216750;23;20446;-82
2021/10/01 14:08:06;;;;;;;5.13;1.23;;;;;;;;;;6216596;23;20011;-82
2021/10/01 14:10:33;;;;;;;1.30;1.00;;;;;;;;;;6216903;23;20015;-82
2021/10/01 14:12:59;;;;;;;1.95;1.30;;;;;;;;;;6190502;23;20008;-82
2021/10/01 14:15:26;;;;;;;2.67;1.38;;;;;;;;;;6216644;23;20009;-82
2021/10/01 14:17:53;;;;;;;1.35;1.20;;;;;;;;;;6216804;23;20007;-83
2021/10/01 14:20:21;;;;;;;2.40;1.10;;;;;;;;;;6216876;23;20424;-83
2021/10/01 14:22:47;;;;;;;3.40;1.20;;;;;;;;;;6190460;23;20058;-83
2021/10/01 14:25:15;;;;;;;2.88;1.30;;;;;;;;;;6217055;23;20411;-82
2021/10/01 14:27:41;;;;;;;1.52;1.00;;;;;;;;;;6217209;23;20435;-85
2021/10/01 14:30:11;;;;;;;2.30;1.48;;;;;;;;;;6189446;23;20009;-81
2021/10/01 14:32:37;;;;;;;2.28;1.15;;;;;;;;;;6216316;23;20079;-82
2021/10/01 14:35:04;;;;;;;3.25;1.40;;;;;;;;;;6200054;23;20016;-82
2021/10/01 14:37:30;;;;;;;2.30;1.20;;;;;;;;;;6246467;23;20005;-83
2021/10/01 14:39:57;;;;;;;3.50;1.60;;;;;;;;;;6247015;23;20074;-82
2021/10/01 14:42:24;;;;;;;2.22;1.40;;;;;;;;;;6246298;23;20000;-81
2021/10/01 14:44:49;;;;;;;2.85;1.75;;;;;;;;;;6246771;23;20424;-81
2021/10/01 14:47:15;;;;;;;3.05;1.50;;;;;;;;;;6246753;23;20011;-81
2021/10/01 14:49:41;;;;;;;2.22;1.30;;;;;;;;;;6247149;23;20080;-83
2021/10/01 14:52:06;;;;;;;2.53;1.20;;;;;;;;;;6246650;23;20046;-83
2021/10/01 14:54:32;;;;;;;4.68;1.35;;;;;;;;;;6246823;23;20000;-82
2021/10/01 14:56:57;;;;;;;2.55;1.23;;;;;;;;;;6246806;23;20007;-82
2021/10/01 14:59:23;;;;;;;1.85;1.00;;;;;;;;;;6219882;23;20419;-82
2021/10/01 15:01:48;;;;;;;2.38;1.20;;;;;;;;;;6219615;23;20000;-81
2021/10/01 15:04:13;;;;;;;2.38;1.23;;;;;;;;;;6246923;23;20036;-81
2021/10/01 15:06:39;;;;;;;3.75;1.60;;;;;;;;;;6246777;23;20080;-81
2021/10/01 15:09:05;;;;;;;2.55;1.60;;;;;;;;;;6246524;23;20008;-81
2021/10/01 15:11:31;;;;;;;4.78;1.70;;;;;;;;;;6246563;23;20022;-81
2021/10/01 15:13:57;;;;;;;1.80;1.23;;;;;;;;;;6246466;23;20000;-81
2021/10/01 15:16:22;;;;;;;2.30;1.00;;;;;;;;;;6246634;23;20004;-81
2021/10/01 15:18:48;;;;;;;2.08;1.05;;;;;;;;;;6246467;23;20000;-82
2021/10/01 15:21:13;;;;;;;2.92;1.67;;;;;;;;;;6246637;23;20411;-82
2021/10/01 15:23:39;;;;;;;1.77;1.65;;;;;;;;;;6246489;23;20018;-82
2021/10/01 15:26:05;;;;;;;2.60;1.50;;;;;;;;;;6246682;23;20370;-81
2021/10/01 15:28:31;;;;;;;1.77;1.48;;;;;;;;;;6246431;23;20071;-81
2021/10/01 15:30:56;;;;;;;3.10;1.40;;;;;;;;;;6246506;23;20374;-81
2021/10/01 15:33:22;;;;;;;2.67;1.30;;;;;;;;;;6246412;23;20004;-80
2021/10/01 15:35:47;;;;;;;1.90;1.13;;;;;;;;;;6226148;23;20083;-81
2021/10/01 15:38:13;;;;;;;1.40;1.30;;;;;;;;;;6216327;23;20086;-80
2021/10/01 15:40:40;;;;;;;2.97;1.40;;;;;;;;;;6215936;23;20072;-81
2021/10/01 15:43:06;;;;;;;3.17;1.63;;;;;;;;;;6215983;23;20011;-81
2021/10/01 15:45:33;;;;;;;1.75;0.98;;;;;;;;;;6215816;23;20005;-81
2021/10/01 15:47:58;;;;;;;1.92;1.10;;;;;;;;;;6216169;23;20332;-81
2021/10/01 15:50:24;;;;;;;1.45;0.98;;;;;;;;;;6218178;23;20000;-81
2021/10/01 15:52:51;;;;;;;2.70;1.10;;;;;;;;;;6191545;23;20035;-81
2021/10/01 15:55:19;;;;;;;3.55;1.20;;;;;;;;;;6217889;23;20062;-80
2021/10/01 15:57:45;;;;;;;1.67;0.88;;;;;;;;;;6217967;23;20078;-80
2021/10/01 16:00:13;;;;;;;1.35;1.08;;;;;;;;;;6217895;23;20439;-80
2021/10/01 16:02:39;;;;;;;3.83;1.20;;;;;;;;;;6218291;23;20046;-81
2021/10/01 16:05:07;;;;;;;5.25;1.15;;;;;;;;;;6217970;23;20004;-86
2021/10/01 16:07:34;;;;;;;2.08;1.17;;;;;;;;;;6218157;23;20076;-82
2021/10/01 16:09:59;;;;;;;1.98;1.42;;;;;;;;;;6217908;23;20007;-82
2021/10/01 16:12:24;;;;;;;3.35;2.00;;;;;;;;;;6217895;23;20005;-82
2021/10/01 16:14:50;;;;;;;2.97;1.63;;;;;;;;;;6217800;23;20004;-81
2021/10/01 16:17:16;;;;;;;2.83;1.73;;;;;;;;;;6218250;23;20335;-81
2021/10/01 16:19:45;;;;;;;1.80;1.13;;;;;;;;;;6218065;23;20070;-81
2021/10/01 16:22:10;;;;;;;2.90;1.10;;;;;;;;;;6217985;23;20324;-81
2021/10/01 16:24:36;;;;;;;3.92;1.27;;;;;;;;;;6218048;23;20075;-81
2021/10/01 16:27:02;;;;;;;2.30;1.38;;;;;;;;;;6218001;23;20058;-80
2021/10/01 16:29:27;;;;;;;2.20;1.50;;;;;;;;;;6217681;23;20000;-81
2021/10/01 16:31:53;;;;;;;3.67;2.65;;;;;;;;;;6217688;23;20000;-81
2021/10/01 16:34:19;;;;;;;1.85;1.30;;;;;;;;;;6218716;23;20328;-84
2021/10/01 16:36:49;;;;;;;2.42;1.50;;;;;;;;;;6248008;23;20019;-81
2021/10/01 16:39:17;;;;;;;3.30;1.92;;;;;;;;;;6248063;23;20000;-82
2021/10/01 16:41:43;;;;;;;2.20;1.80;;;;;;;;;;6220919;23;20332;-81
2021/10/01 16:44:09;;;;;;;2.40;1.45;;;;;;;;;;6220989;23;20015;-81
2021/10/01 16:46:35;;;;;;;2.13;1.63;;;;;;;;;;6248508;23;20422;-82
2021/10/01 16:49:01;;;;;;;1.95;1.40;;;;;;;;;;6248062;23;20011;-82
2021/10/01 16:51:26;;;;;;;3.42;1.58;;;;;;;;;;6248024;23;20004;-83
2021/10/01 16:53:52;;;;;;;4.38;2.10;;;;;;;;;;6248125;23;20040;-81
2021/10/01 16:56:18;;;;;;;2.35;1.80;;;;;;;;;;6220964;23;20327;-83
2021/10/01 16:58:43;;;;;;;3.10;2.42;;;;;;;;;;6247726;23;20019;-81
2021/10/01 17:01:10;;;;;;;1.45;1.15;;;;;;;;;;6247388;23;20023;-81
2021/10/01 17:03:36;;;;;;;3.70;2.33;;;;;;;;;;6248132;23;20004;-80
2021/10/01 17:06:03;;;;;;;3.15;1.60;;;;;;;;;;6221174;23;20478;-82
2021/10/01 17:08:29;;;;;;;5.68;1.63;;;;;;;;;;6247738;23;20071;-82
2021/10/01 17:10:55;;;;;;;3.55;1.70;;;;;;;;;;6248101;23;20008;-82
2021/10/01 17:13:20;;;;;;;3.55;1.70;;;;;;;;;;6247615;23;20490;-82
2021/10/01 17:15:46;;;;;;;3.45;1.50;;;;;;;;;;6247795;23;20485;-82
2021/10/01 17:18:11;;;;;;;1.80;1.50;;;;;;;;;;6248488;23;20083;-82
2021/10/01 17:20:37;;;;;;;3.63;1.98;;;;;;;;;;6247864;23;20050;-80
2021/10/01 17:23:07;;;;;;;2.00;1.33;;;;;;;;;;6247862;23;20046;-80
2021/10/01 17:25:33;;;;;;;1.83;1.52;;;;;;;;;;6247867;23;20000;-80
2021/10/01 17:27:58;;;;;;;2.28;1.35;;;;;;;;;;6220687;23;20000;-80
2021/10/01 17:30:24;;;;;;;3.00;2.33;;;;;;;;;;6247778;23;20031;-81
2021/10/01 17:32:49;;;;;;;5.95;2.47;;;;;;;;;;6248006;23;20415;-81
2021/10/01 17:35:15;;;;;;;1.70;1.60;;;;;;;;;;6247365;23;20020;-80
2021/10/01 17:37:40;;;;;;;3.03;1.58;;;;;;;;;;6247497;23;20439;-78
2021/10/01 17:40:07;;;;;;;1.65;1.30;;;;;;;;;;6247474;23;20441;-80
2021/10/01 17:42:33;;;;;;;1.60;1.45;;;;;;;;;;6247355;23;20011;-81
2021/10/01 17:44:59;;;;;;;2.38;1.40;;;;;;;;;;6221171;23;20087;-82
2021/10/01 17:47:25;;;;;;;3.83;1.75;;;;;;;;;;6247623;23;20023;-80
2021/10/01 17:49:50;;;;;;;3.15;1.35;;;;;;;;;;6247862;23;20419;-83
2021/10/01 17:52:16;;;;;;;1.95;1.23;;;;;;;;;;6247216;23;20502;-80
2021/10/01 17:54:42;;;;;;;1.40;1.15;;;;;;;;;;6247228;23;20007;-79
2021/10/01 17:57:08;;;;;;;2.17;1.50;;;;;;;;;;6247132;23;20004;-79
2021/10/01 17:59:33;;;;;;;4.15;1.65;;;;;;;;;;6247511;23;20473;-79
2021/10/01 18:01:59;;;;;;;1.90;1.45;;;;;;;;;;6247062;23;20000;-81
2021/10/01 18:04:24;;;;;;;4.13;1.50;;;;;;;;;;6247447;23;20019;-80
2021/10/01 18:06:50;;;;;;;3.13;1.63;;;;;;;;;;6247229;23;20008;-81
2021/10/01 18:09:15;;;;;;;1.65;1.33;;;;;;;;;;6247229;23;20028;-80
2021/10/01 18:11:42;;;;;;;2.17;1.55;;;;;;;;;;6246819;23;20019;-81
2021/10/01 18:14:08;;;;;;;3.30;1.27;;;;;;;;;;6247252;23;20008;-81
2021/10/01 18:16:33;;;;;;;3.60;1.33;;;;;;;;;;6247441;23;20000;-84
2021/10/01 18:18:58;;;;;;;1.92;1.20;;;;;;;;;;6247192;23;20004;-82
2021/10/01 18:21:24;;;;;;;2.35;1.40;;;;;;;;;;6246979;23;20072;-83
2021/10/01 18:23:49;;;;;;;4.10;1.80;;;;;;;;;;6247329;23;20079;-81
2021/10/01 18:26:15;;;;;;;2.00;1.38;;;;;;;;;;6246924;23;20394;-81
2021/10/01 18:28:40;;;;;;;1.95;1.23;;;;;;;;;;6246842;23;20004;-81
2021/10/01 18:31:06;;;;;;;2.22;1.25;;;;;;;;;;6246981;23;20053;-81
2021/10/01 18:33:31;;;;;;;2.70;1.17;;;;;;;;;;6247079;23;20428;-81
2021/10/01 18:35:57;;;;;;;2.50;1.30;;;;;;;;;;6246895;23;20016;-81
2021/10/01 18:38:23;;;;;;;1.20;1.10;;;;;;;;;;6246923;23;20371;-81
2021/10/01 18:40:52;;;;;;;2.78;1.25;;;;;;;;;;6246761;23;20014;-81
2021/10/01 18:43:20;;;;;;;;;;;;;;;;;;6247344;23;20031;-81
2021/10/01 18:45:47;;;;;;;1.20;1.10;;;;;;;;;;6246707;23;20319;-81
2021/10/01 18:48:15;;;;;;;2.17;1.30;;;;;;;;;;6246693;23;20022;-81
2021/10/01 18:50:40;;;;;;;1.77;1.10;;;;;;;;;;6246818;23;20000;-81
2021/10/01 18:53:06;;;;;;;1.42;1.20;;;;;;;;;;6247146;23;20008;-81
2021/10/01 18:55:32;;;;;;;1.40;1.30;;;;;;;;;;6246488;23;20340;-81
2021/10/01 18:57:58;;;;;;;2.00;1.23;;;;;;;;;;6247081;23;20008;-81
2021/10/01 19:00:24;;;;;;;1.88;1.38;;;;;;;;;;6246887;23;20000;-81
2021/10/01 19:02:49;;;;;;;2.63;1.50;;;;;;;;;;6246576;23;20034;-81
2021/10/01 19:05:15;;;;;;;1.92;1.40;;;;;;;;;;6246638;23;20008;-81
2021/10/01 19:07:42;;;;;;;1.65;1.40;;;;;;;;;;6246767;23;19997;-81
2021/10/01 19:10:10;;;;;;;2.25;1.30;;;;;;;;;;6219570;23;20000;-81
2021/10/01 19:12:36;;;;;;;2.35;1.55;;;;;;;;;;6246884;23;20007;-81
2021/10/01 19:15:03;;;;;;;5.15;1.38;;;;;;;;;;6246491;23;20000;-80
2021/10/01 19:17:29;;;;;;;1.25;1.15;;;;;;;;;;6246725;23;19996;-80
2021/10/01 19:19:57;;;;;;;2.20;1.30;;;;;;;;;;6246581;23;20010;-81
2021/10/01 19:22:26;;;;;;;1.90;1.20;;;;;;;;;;6246378;23;20047;-80
2021/10/01 19:30:23;;;;;;;3.17;1.90;;;;;;;;;;6246590;23;20007;-80
2021/10/01 19:32:55;;;;;;;2.42;1.63;;;;;;;;;;6246208;23;20000;-80
2021/10/01 19:35:22;;;;;;;2.83;1.50;;;;;;;;;;6246345;23;20039;-80
2021/10/01 19:37:48;;;;;;;1.50;1.33;;;;;;;;;;6246548;23;20000;-80
2021/10/01 19:40:14;;;;;;;2.53;1.45;;;;;;;;;;6246430;23;20080;-80
2021/10/01 19:42:40;;;;;;;1.60;1.40;;;;;;;;;;6246588;23;20370;-80
2021/10/01 19:45:11;;;;;;;1.98;1.50;;;;;;;;;;6219614;23;20086;-80
2021/10/01 19:47:37;;;;;;;2.65;1.42;;;;;;;;;;6246246;23;20018;-80
2021/10/01 19:50:06;;;;;;;2.50;1.52;;;;;;;;;;6246387;23;20384;-80
2021/10/01 19:52:32;;;;;;;2.20;1.30;;;;;;;;;;6246556;23;20062;-81
2021/10/01 19:54:59;;;;;;;4.25;1.60;;;;;;;;;;6246263;23;20078;-80
2021/10/01 19:57:25;;;;;;;1.67;1.23;;;;;;;;;;6246288;23;20383;-80
2021/10/01 19:59:53;;;;;;;2.67;1.88;;;;;;;;;;6246320;23;20007;-80
2021/10/01 20:02:21;;;;;;;3.15;1.33;;;;;;;;;;6246234;23;20014;-80
2021/10/01 20:04:46;;;;;;;1.95;1.13;;;;;;;;;;6246585;23;20011;-80
2021/10/01 20:07:12;;;;;;;1.77;1.27;;;;;;;;;;6246157;23;20000;-80
2021/10/01 20:09:37;;;;;;;4.28;1.42;;;;;;;;;;6246324;23;20000;-80
2021/10/01 20:12:03;;;;;;;3.53;2.15;;;;;;;;;;6246130;23;20024;-80
2021/10/01 20:14:29;;;;;;;3.55;1.40;;;;;;;;;;6246178;23;20412;-81
2021/10/01 20:16:56;;;;;;;4.43;2.90;;;;;;;;;;6246199;23;20091;-80
2021/10/01 20:48:59;;;;;;;3.53;1.80;;;;;;;;;;6248304;23;20058;-81
2021/10/01 20:51:27;;;;;;;3.35;1.60;;;;;;;;;;6247930;23;20004;-81
